createdAt,value
2023-01-25T00:04:45.978Z,12.42
2023-01-25T00:09:48.201Z,12.44
2023-01-25T00:14:50.318Z,11.95
2023-01-25T00:19:52.450Z,12.20
2023-01-25T00:24:54.599Z,12.03
2023-01-25T00:29:56.747Z,12.29
2023-01-25T00:34:58.844Z,12.41
2023-01-25T00:40:00.987Z,12.34
2023-01-25T00:45:03.219Z,12.45
2023-01-25T00:50:08.067Z,12.27
2023-01-25T00:55:10.524Z,12.65
2023-01-25T01:00:13.221Z,12.48
2023-01-25T01:05:15.610Z,12.36
2023-01-25T01:10:17.920Z,12.47
2023-01-25T01:15:20.367Z,12.56
2023-01-25T01:20:23.549Z,12.63
2023-01-25T01:25:25.700Z,12.30
2023-01-25T01:30:27.765Z,12.35
2023-01-25T01:35:31.132Z,11.96
2023-01-25T01:40:33.227Z,12.00
2023-01-25T01:45:44.614Z,12.28
2023-01-25T01:50:51.076Z,12.14
2023-01-25T01:55:56.378Z,12.07
2023-01-25T02:00:59.098Z,11.98
2023-01-25T02:06:09.357Z,11.97
2023-01-25T02:11:13.348Z,11.84
2023-01-25T02:16:19.833Z,11.91
2023-01-25T02:21:23.854Z,11.95
2023-01-25T02:26:26.397Z,12.08
2023-01-25T02:31:28.742Z,11.70
2023-01-25T02:36:32.973Z,12.12
2023-01-25T02:41:36.734Z,11.94
2023-01-25T02:46:40.788Z,11.93
2023-01-25T02:51:45.468Z,11.91
2023-01-25T02:56:47.588Z,11.97
2023-01-25T03:01:50.425Z,11.92
2023-01-25T03:06:52.521Z,11.84
2023-01-25T03:11:54.688Z,11.55
2023-01-25T03:16:56.839Z,11.69
2023-01-25T03:21:59.366Z,11.81
2023-01-25T03:27:18.624Z,11.88
2023-01-25T03:32:20.842Z,12.13
2023-01-25T03:37:22.984Z,12.35
2023-01-25T03:42:25.475Z,12.32
2023-01-25T03:47:27.622Z,12.24
2023-01-25T03:52:41.044Z,12.01
2023-01-25T03:57:43.312Z,11.96
2023-01-25T04:02:45.471Z,11.95
2023-01-25T04:07:47.596Z,12.17
2023-01-25T04:12:49.727Z,12.25
2023-01-25T04:17:52.040Z,12.03
2023-01-25T04:22:54.148Z,11.85
2023-01-25T04:27:56.226Z,12.05
2023-01-25T04:33:04.571Z,12.27
2023-01-25T04:38:07.074Z,11.70
2023-01-25T04:43:10.071Z,12.33
2023-01-25T04:48:13.714Z,11.81
2023-01-25T04:53:15.960Z,11.90
2023-01-25T04:58:18.083Z,12.11
2023-01-25T05:03:20.226Z,12.09
2023-01-25T05:08:22.353Z,12.23
2023-01-25T05:13:24.517Z,12.20
2023-01-25T05:18:31.100Z,12.15
2023-01-25T05:23:41.120Z,11.67
2023-01-25T05:28:43.187Z,11.92
2023-01-25T05:33:45.286Z,12.26
2023-01-25T05:38:47.433Z,12.06
2023-01-25T05:43:49.891Z,12.11
2023-01-25T05:48:51.956Z,11.72
2023-01-25T05:53:57.110Z,11.95
2023-01-25T05:59:00.923Z,12.11
2023-01-25T06:04:03.072Z,11.85
2023-01-25T06:09:05.241Z,11.85
2023-01-25T06:14:07.480Z,11.52
2023-01-25T06:19:09.674Z,11.64
2023-01-25T06:24:11.872Z,11.82
2023-01-25T06:29:13.942Z,11.75
2023-01-25T06:34:17.311Z,11.90
2023-01-25T06:39:19.444Z,11.84
2023-01-25T06:44:21.608Z,11.63
2023-01-25T06:49:23.687Z,11.96
2023-01-25T06:54:25.804Z,11.69
2023-01-25T06:59:28.013Z,11.91
2023-01-25T07:04:30.125Z,11.91
2023-01-25T07:09:32.181Z,11.84
2023-01-25T07:14:34.440Z,11.81
2023-01-25T07:19:36.568Z,11.76
2023-01-25T07:24:38.920Z,11.80
2023-01-25T07:29:41.623Z,11.84
2023-01-25T07:34:43.916Z,11.72
2023-01-25T07:39:49.945Z,11.60
2023-01-25T07:44:52.261Z,11.81
2023-01-25T07:49:55.447Z,11.83
2023-01-25T07:54:57.542Z,12.04
2023-01-25T07:59:59.897Z,12.17
2023-01-25T08:05:02.207Z,12.00
2023-01-25T08:10:04.992Z,11.58
2023-01-25T08:15:08.907Z,12.17
2023-01-25T08:20:12.990Z,12.06
2023-01-25T08:25:15.135Z,11.92
2023-01-25T08:30:17.739Z,11.75
2023-01-25T08:35:19.845Z,11.90
2023-01-25T08:40:22.012Z,11.95
2023-01-25T08:45:30.958Z,12.12
2023-01-25T08:50:33.268Z,12.32
2023-01-25T08:55:36.677Z,11.74
2023-01-25T09:00:42.677Z,12.01
2023-01-25T09:05:45.089Z,11.77
2023-01-25T09:10:47.337Z,11.58
2023-01-25T09:15:49.488Z,11.87
2023-01-25T09:20:51.964Z,11.80
2023-01-25T09:25:59.061Z,12.19
2023-01-25T09:31:20.538Z,12.11
2023-01-25T09:36:24.331Z,12.47
2023-01-25T09:41:52.222Z,12.44
2023-01-25T09:46:58.704Z,12.35
2023-01-25T09:52:23.463Z,12.33
2023-01-25T09:57:32.360Z,12.19
2023-01-25T10:02:46.594Z,12.40
2023-01-25T10:07:54.577Z,12.44
2023-01-25T10:12:56.763Z,12.33
2023-01-25T10:18:26.780Z,12.38
2023-01-25T10:23:41.779Z,12.39
2023-01-25T10:29:14.189Z,12.47
2023-01-25T10:34:22.954Z,12.50
2023-01-25T10:39:25.192Z,12.18
2023-01-25T10:44:29.214Z,11.91
2023-01-25T10:49:40.941Z,12.27
2023-01-25T10:54:43.455Z,12.13
2023-01-25T10:59:53.214Z,12.45
2023-01-25T11:04:55.447Z,12.43
2023-01-25T11:09:57.542Z,12.18
2023-01-25T11:15:23.955Z,12.28
2023-01-25T11:20:26.099Z,12.15
2023-01-25T11:25:33.584Z,12.47
2023-01-25T11:30:35.717Z,12.28
2023-01-25T11:35:53.046Z,12.24
2023-01-25T11:41:10.221Z,12.40
2023-01-25T11:46:42.715Z,12.18
2023-01-25T11:51:56.065Z,12.40
2023-01-25T11:57:24.290Z,12.50
2023-01-25T12:02:51.130Z,12.60
2023-01-25T12:08:16.860Z,12.48
2023-01-25T12:13:28.232Z,12.66
2023-01-25T12:18:59.069Z,12.53
2023-01-25T12:24:10.153Z,12.69
2023-01-25T12:29:30.284Z,12.75
2023-01-25T12:34:42.828Z,12.59
2023-01-25T12:39:59.512Z,12.56
2023-01-25T12:45:12.256Z,12.65
2023-01-25T12:50:39.076Z,12.73
2023-01-25T12:55:41.605Z,12.61
2023-01-25T13:00:49.640Z,12.57
2023-01-25T13:06:22.437Z,12.44
2023-01-25T13:11:40.276Z,12.41
2023-01-25T13:16:44.867Z,12.63
2023-01-25T13:21:49.751Z,12.71
2023-01-25T13:26:54.643Z,12.61
2023-01-25T13:31:59.822Z,12.26
2023-01-25T13:37:23.387Z,12.43
2023-01-25T13:42:26.873Z,12.48
2023-01-25T13:47:38.621Z,12.35
2023-01-25T13:52:56.095Z,12.34
2023-01-25T13:58:32.923Z,12.42
2023-01-25T14:03:38.457Z,12.34
2023-01-25T14:08:41.049Z,12.30
2023-01-25T14:13:59.640Z,12.48
2023-01-25T14:19:24.680Z,12.46
2023-01-25T14:24:26.835Z,12.45
2023-01-25T14:29:33.321Z,12.29
2023-01-25T14:34:35.659Z,12.29
2023-01-25T14:39:37.923Z,12.48
2023-01-25T14:44:40.611Z,12.49
2023-01-25T14:49:42.907Z,12.23
2023-01-25T14:54:54.653Z,12.34
2023-01-25T14:59:57.784Z,12.20
2023-01-25T15:05:14.635Z,12.35
2023-01-25T15:10:21.508Z,12.15
2023-01-25T15:15:25.310Z,12.18
2023-01-25T15:20:40.698Z,12.32
2023-01-25T15:25:56.462Z,12.43
2023-01-25T15:30:59.936Z,12.41
2023-01-25T15:36:02.277Z,11.85
2023-01-25T15:41:04.582Z,12.26
2023-01-25T15:46:14.627Z,12.40
2023-01-25T15:51:16.684Z,12.62
2023-01-25T15:56:29.385Z,12.56
2023-01-25T16:01:31.879Z,12.46
2023-01-25T16:06:44.616Z,12.28
2023-01-25T16:11:57.803Z,12.27
2023-01-25T16:17:06.014Z,12.39
2023-01-25T16:22:08.198Z,12.00
2023-01-25T16:27:25.763Z,12.18
2023-01-25T16:32:28.043Z,12.06
2023-01-25T16:37:30.088Z,11.93
2023-01-25T16:42:32.402Z,12.09
2023-01-25T16:47:34.634Z,11.59
2023-01-25T16:52:36.834Z,11.64
2023-01-25T16:57:40.358Z,11.85
2023-01-25T17:02:58.317Z,11.59
2023-01-25T17:08:01.773Z,11.82
2023-01-25T17:13:04.028Z,11.90
2023-01-25T17:18:06.341Z,12.09
2023-01-25T17:23:08.629Z,12.05
2023-01-25T17:28:10.962Z,12.14
2023-01-25T17:33:14.653Z,11.57
2023-01-25T17:38:16.945Z,12.11
2023-01-25T17:43:19.513Z,12.03
2023-01-25T17:48:21.609Z,11.83
2023-01-25T17:53:23.849Z,11.95
2023-01-25T17:58:25.929Z,11.73
2023-01-25T18:03:28.049Z,11.84
2023-01-25T18:08:30.215Z,11.73
2023-01-25T18:13:32.554Z,11.70
2023-01-25T18:18:34.754Z,11.40
2023-01-25T18:23:38.676Z,11.76
2023-01-25T18:28:40.926Z,11.65
2023-01-25T18:33:44.186Z,11.91
2023-01-25T18:38:46.887Z,11.98
2023-01-25T18:43:50.249Z,11.95
2023-01-25T18:48:52.437Z,11.94
2023-01-25T18:53:54.889Z,11.54
2023-01-25T18:58:58.698Z,11.75
2023-01-25T19:04:00.891Z,11.96
2023-01-25T19:09:03.068Z,11.78
2023-01-25T19:14:05.371Z,11.88
2023-01-25T19:19:07.441Z,11.77
2023-01-25T19:24:13.955Z,11.75
2023-01-25T19:29:16.436Z,11.35
2023-01-25T19:34:18.614Z,11.52
2023-01-25T19:39:20.728Z,11.59
2023-01-25T19:44:23.184Z,11.78
2023-01-25T19:49:25.295Z,11.58
2023-01-25T19:54:27.777Z,11.73
2023-01-25T19:59:29.960Z,11.77
2023-01-25T20:04:32.402Z,11.89
2023-01-25T20:09:34.540Z,11.58
2023-01-25T20:14:38.336Z,11.72
2023-01-25T20:19:40.553Z,11.80
2023-01-25T20:24:42.700Z,11.57
2023-01-25T20:29:44.839Z,11.64
2023-01-25T20:34:46.978Z,11.71
2023-01-25T20:39:49.119Z,11.74
2023-01-25T20:44:51.189Z,11.53
2023-01-25T20:49:53.363Z,11.53
2023-01-25T20:54:55.761Z,11.44
2023-01-25T20:59:57.958Z,11.43
2023-01-25T21:05:00.024Z,11.54
2023-01-25T21:10:02.225Z,11.20
2023-01-25T21:15:04.559Z,11.37
2023-01-25T21:20:08.156Z,11.31
2023-01-25T21:25:13.017Z,11.25
2023-01-25T21:30:16.198Z,11.46
2023-01-25T21:35:18.314Z,11.50
2023-01-25T21:40:20.788Z,11.38
2023-01-25T21:45:41.568Z,11.32
2023-01-25T21:51:01.995Z,11.33
2023-01-25T21:56:04.323Z,11.27
2023-01-25T22:01:10.398Z,11.37
2023-01-25T22:06:12.657Z,11.25
2023-01-25T22:11:15.038Z,11.36
2023-01-25T22:16:17.234Z,11.16
2023-01-25T22:21:21.998Z,11.46
2023-01-25T22:26:27.289Z,11.50
2023-01-25T22:31:31.780Z,11.47
2023-01-25T22:36:34.821Z,11.46
2023-01-25T22:41:38.330Z,11.30
2023-01-25T22:46:40.552Z,11.28
2023-01-25T22:51:42.708Z,11.27
2023-01-25T22:56:44.839Z,11.22
2023-01-25T23:01:47.112Z,11.28
2023-01-25T23:06:49.706Z,11.11
2023-01-25T23:11:52.044Z,10.95
2023-01-25T23:17:14.355Z,10.92
2023-01-25T23:22:16.494Z,11.05
2023-01-25T23:27:18.762Z,10.79
2023-01-25T23:32:20.903Z,10.63
2023-01-25T23:37:23.592Z,10.85
2023-01-25T23:42:25.647Z,10.55
2023-01-25T23:47:29.537Z,10.72
2023-01-25T23:52:33.326Z,10.62
2023-01-25T23:57:35.395Z,10.78
